Gambell Airport
PAGM : now visible

Aeroporto :











RITROVATECI SU...

 
LOGIN :

Iscrizione | Disclaimer

   EN    FR    IT 

 









Sommario :    VFR   VFR Marginale   IFR   IFR Intensivo   IFR Molto Intensivo
Visibilità : 
Base nubi : 
>= 8 km
>= 3000ft
5 / 8 km
1000 / 3000 ft
1500m / 5 km
500 / 1000 ft
800 / 1500m
200 / 500 ft
< 800m
< 200 ft
Simboli :   Temporali  Nebbia  Neve Forte  Precipitazioni Forti  Vento > 20 kt






- Altitudine del aeroporto : 27 ft
- Codice IATA : GAM


PAGM - Gambell

ULTIMO METAR :
  • 091656Z AUTO 06012KT 10SM UP OVC015 M07/M09 A3008 RMK AO2 UPB21SNE21B31E40 SLP190 P0000 T10721094 FZRANO

METARs OBSOLETI :
  • 091604Z AUTO 06006KT 9SM -SN OVC015 M08/M10 A3008 RMK AO2 P0000 FZRANO
  • 091456Z AUTO 10008KT 9SM -SN OVC013 M07/M09 A3008 RMK AO2 UPB49E51SNE1357B15E49B51 SLP193 P0000 60000 T10721094 58002 FZRANO

TAF N/A



MetMap, La meteo Aeronautica in un colpo d'occhio ! - Copyright ORBIFLY Dicembre 2007 - Disclaimer

ORBIFLY MET'MAP TEAM :

Programmazione e sviluppo : Alexandra Zaïnal
Concezione : Baudouin d'Aumeries
Aiuto per la programmazione : Marc-Olivier Méhu
Supporto tecnico e logistico : Manuel Goepfert
Aiuto per la traduzione : Arnaldo La Scala

Contatto : metmap@orbifly.com




FONTI E CREDITI :

   NOAA       Earth
Advisory